Edinburgh, Indiana
Current Conditions -  °F | °C
As of 3:45 PM on Friday 19 Dec 2014 (Local Time) from KBAK Reporting Station
Overcast Overcast  
Wind Chill: 30°   Ceiling: 2600
Heat Index: 30°   Visibility: 10mi
Dew Point: 25°   Wind: 0mph
Humidity: 80%   Direction: NA
Pressure: 30.28"   Gusts: NA
Location:  39.35°N, 85.97°W
Report Text: KBAK 192045Z 00000KT 10SM OVC026 M01/M04 A3028
Loading
Personal Weather Stations






























Interactive Weather Map New forecast layout! Learn more

10-Day Weather Forecast

Advertisements
Track Severe Weather on mobile